sensor_id;sensor_type;location;lat;lon;timestamp;pressure;altitude;pressure_sealevel;temperature;humidity
13422;BME280;6782;55.904;13.396;2022-09-03T00:00:05;67462.25;;;11.48;100.00
13422;BME280;6782;55.904;13.396;2022-09-03T00:03:02;67462.25;;;11.48;100.00
13422;BME280;6782;55.904;13.396;2022-09-03T00:05:55;67460.16;;;11.46;100.00
13422;BME280;6782;55.904;13.396;2022-09-03T00:08:51;67458.28;;;11.44;100.00
13422;BME280;6782;55.904;13.396;2022-09-03T00:11:49;67455.50;;;11.42;100.00
13422;BME280;6782;55.904;13.396;2022-09-03T00:14:42;67454.47;;;11.41;100.00
13422;BME280;6782;55.904;13.396;2022-09-03T00:17:35;67453.13;;;11.40;100.00
13422;BME280;6782;55.904;13.396;2022-09-03T00:20:30;67451.84;;;11.38;100.00
13422;BME280;6782;55.904;13.396;2022-09-03T00:23:20;67448.06;;;11.35;100.00
13422;BME280;6782;55.904;13.396;2022-09-03T00:26:17;67444.09;;;11.31;100.00
13422;BME280;6782;55.904;13.396;2022-09-03T00:29:11;67442.03;;;11.29;100.00
13422;BME280;6782;55.904;13.396;2022-09-03T00:32:04;67442.53;;;11.29;100.00
13422;BME280;6782;55.904;13.396;2022-09-03T00:34:57;67441.06;;;11.28;100.00
13422;BME280;6782;55.904;13.396;2022-09-03T00:37:49;67439.88;;;11.27;100.00
13422;BME280;6782;55.904;13.396;2022-09-03T00:40:52;67439.63;;;11.26;100.00
13422;BME280;6782;55.904;13.396;2022-09-03T00:43:54;67439.50;;;11.26;100.00
13422;BME280;6782;55.904;13.396;2022-09-03T00:46:52;67437.97;;;11.25;100.00
13422;BME280;6782;55.904;13.396;2022-09-03T00:49:53;67437.38;;;11.25;100.00
13422;BME280;6782;55.904;13.396;2022-09-03T00:52:53;67437.31;;;11.24;100.00
13422;BME280;6782;55.904;13.396;2022-09-03T00:55:48;67438.34;;;11.25;100.00
13422;BME280;6782;55.904;13.396;2022-09-03T00:58:56;67440.16;;;11.26;100.00
13422;BME280;6782;55.904;13.396;2022-09-03T01:01:49;67440.72;;;11.27;100.00
13422;BME280;6782;55.904;13.396;2022-09-03T01:04:51;67441.78;;;11.27;100.00
13422;BME280;6782;55.904;13.396;2022-09-03T01:07:47;67444.13;;;11.29;100.00
13422;BME280;6782;55.904;13.396;2022-09-03T01:10:45;67445.94;;;11.31;100.00
13422;BME280;6782;55.904;13.396;2022-09-03T01:13:40;67446.94;;;11.32;100.00
13422;BME280;6782;55.904;13.396;2022-09-03T01:16:36;67448.16;;;11.32;100.00
13422;BME280;6782;55.904;13.396;2022-09-03T01:23:13;67450.19;;;11.35;100.00
13422;BME280;6782;55.904;13.396;2022-09-03T01:26:21;67451.19;;;11.36;100.00
13422;BME280;6782;55.904;13.396;2022-09-03T01:29:19;67451.31;;;11.36;100.00
13422;BME280;6782;55.904;13.396;2022-09-03T01:32:13;67452.38;;;11.37;100.00
13422;BME280;6782;55.904;13.396;2022-09-03T01:35:12;67452.38;;;11.37;100.00
13422;BME280;6782;55.904;13.396;2022-09-03T01:38:14;67453.00;;;11.37;100.00
13422;BME280;6782;55.904;13.396;2022-09-03T01:41:10;67453.00;;;11.37;100.00
13422;BME280;6782;55.904;13.396;2022-09-03T01:44:26;67453.28;;;11.37;100.00
13422;BME280;6782;55.904;13.396;2022-09-03T01:47:29;67454.31;;;11.38;100.00
13422;BME280;6782;55.904;13.396;2022-09-03T01:50:34;67456.66;;;11.40;100.00
13422;BME280;6782;55.904;13.396;2022-09-03T01:53:37;67459.31;;;11.42;100.00
13422;BME280;6782;55.904;13.396;2022-09-03T01:56:36;67462.59;;;11.45;100.00
13422;BME280;6782;55.904;13.396;2022-09-03T01:59:33;67464.94;;;11.47;100.00
13422;BME280;6782;55.904;13.396;2022-09-03T02:02:25;67467.47;;;11.49;100.00
13422;BME280;6782;55.904;13.396;2022-09-03T02:05:15;67469.38;;;11.50;100.00
13422;BME280;6782;55.904;13.396;2022-09-03T02:08:05;67471.16;;;11.52;100.00
13422;BME280;6782;55.904;13.396;2022-09-03T02:10:54;67473.06;;;11.54;100.00
13422;BME280;6782;55.904;13.396;2022-09-03T02:13:50;67475.72;;;11.56;100.00
13422;BME280;6782;55.904;13.396;2022-09-03T02:16:40;67477.50;;;11.57;100.00
13422;BME280;6782;55.904;13.396;2022-09-03T02:19:29;67479.31;;;11.58;100.00
13422;BME280;6782;55.904;13.396;2022-09-03T02:22:17;67480.91;;;11.60;100.00
13422;BME280;6782;55.904;13.396;2022-09-03T02:25:04;67482.41;;;11.61;100.00
13422;BME280;6782;55.904;13.396;2022-09-03T02:27:52;67484.03;;;11.62;100.00
13422;BME280;6782;55.904;13.396;2022-09-03T02:30:39;67486.53;;;11.64;100.00
13422;BME280;6782;55.904;13.396;2022-09-03T02:33:37;67489.19;;;11.67;100.00
13422;BME280;6782;55.904;13.396;2022-09-03T02:36:28;67491.59;;;11.69;100.00
13422;BME280;6782;55.904;13.396;2022-09-03T02:39:16;67492.94;;;11.70;100.00
13422;BME280;6782;55.904;13.396;2022-09-03T02:42:03;67495.16;;;11.71;100.00
13422;BME280;6782;55.904;13.396;2022-09-03T02:44:52;67495.63;;;11.72;100.00
13422;BME280;6782;55.904;13.396;2022-09-03T02:47:44;67495.19;;;11.71;100.00
13422;BME280;6782;55.904;13.396;2022-09-03T02:50:40;67495.09;;;11.71;100.00
13422;BME280;6782;55.904;13.396;2022-09-03T02:53:28;67494.94;;;11.71;100.00
13422;BME280;6782;55.904;13.396;2022-09-03T02:56:15;67494.94;;;11.71;100.00
13422;BME280;6782;55.904;13.396;2022-09-03T02:59:03;67496.00;;;11.71;100.00
13422;BME280;6782;55.904;13.396;2022-09-03T03:01:51;67495.19;;;11.70;100.00
13422;BME280;6782;55.904;13.396;2022-09-03T03:04:39;67494.91;;;11.70;100.00
13422;BME280;6782;55.904;13.396;2022-09-03T03:07:31;67494.47;;;11.69;100.00
13422;BME280;6782;55.904;13.396;2022-09-03T03:10:18;67495.53;;;11.70;100.00
13422;BME280;6782;55.904;13.396;2022-09-03T03:13:05;67496.72;;;11.71;100.00
13422;BME280;6782;55.904;13.396;2022-09-03T03:15:55;67497.31;;;11.71;100.00
13422;BME280;6782;55.904;13.396;2022-09-03T03:18:43;67497.63;;;11.71;100.00
13422;BME280;6782;55.904;13.396;2022-09-03T03:21:30;67498.25;;;11.72;100.00
13422;BME280;6782;55.904;13.396;2022-09-03T03:24:19;67498.53;;;11.72;100.00
13422;BME280;6782;55.904;13.396;2022-09-03T03:27:06;67499.13;;;11.72;100.00
13422;BME280;6782;55.904;13.396;2022-09-03T03:29:55;67496.75;;;11.71;100.00
13422;BME280;6782;55.904;13.396;2022-09-03T03:32:42;67492.88;;;11.67;100.00
13422;BME280;6782;55.904;13.396;2022-09-03T03:35:29;67492.59;;;11.67;100.00
13422;BME280;6782;55.904;13.396;2022-09-03T03:38:16;67491.66;;;11.67;100.00
13422;BME280;6782;55.904;13.396;2022-09-03T03:41:09;67491.19;;;11.67;100.00
13422;BME280;6782;55.904;13.396;2022-09-03T03:43:57;67491.63;;;11.67;100.00
13422;BME280;6782;55.904;13.396;2022-09-03T03:46:45;67491.28;;;11.67;100.00
13422;BME280;6782;55.904;13.396;2022-09-03T03:49:32;67492.03;;;11.68;100.00
13422;BME280;6782;55.904;13.396;2022-09-03T03:52:20;67489.97;;;11.66;100.00
13422;BME280;6782;55.904;13.396;2022-09-03T03:55:07;67486.44;;;11.63;100.00
13422;BME280;6782;55.904;13.396;2022-09-03T03:57:57;67484.06;;;11.61;100.00
13422;BME280;6782;55.904;13.396;2022-09-03T04:00:44;67481.28;;;11.58;100.00
13422;BME280;6782;55.904;13.396;2022-09-03T04:03:32;67479.84;;;11.57;100.00
13422;BME280;6782;55.904;13.396;2022-09-03T04:06:20;67479.09;;;11.56;100.00
13422;BME280;6782;55.904;13.396;2022-09-03T04:09:07;67478.81;;;11.56;100.00
13422;BME280;6782;55.904;13.396;2022-09-03T04:11:54;67478.91;;;11.56;100.00
13422;BME280;6782;55.904;13.396;2022-09-03T04:14:43;67480.09;;;11.57;100.00
13422;BME280;6782;55.904;13.396;2022-09-03T04:17:30;67480.84;;;11.58;100.00
13422;BME280;6782;55.904;13.396;2022-09-03T04:20:18;67480.69;;;11.58;100.00
13422;BME280;6782;55.904;13.396;2022-09-03T04:23:05;67480.81;;;11.58;100.00
13422;BME280;6782;55.904;13.396;2022-09-03T04:25:52;67481.25;;;11.58;100.00
13422;BME280;6782;55.904;13.396;2022-09-03T04:28:39;67482.16;;;11.59;100.00
13422;BME280;6782;55.904;13.396;2022-09-03T04:31:28;67483.00;;;11.60;100.00
13422;BME280;6782;55.904;13.396;2022-09-03T04:34:16;67487.00;;;11.63;100.00
13422;BME280;6782;55.904;13.396;2022-09-03T04:37:03;67494.78;;;11.71;100.00
13422;BME280;6782;55.904;13.396;2022-09-03T04:39:50;67502.31;;;11.77;100.00
13422;BME280;6782;55.904;13.396;2022-09-03T04:42:38;67507.75;;;11.81;100.00
13422;BME280;6782;55.904;13.396;2022-09-03T04:45:26;67511.91;;;11.85;100.00
13422;BME280;6782;55.904;13.396;2022-09-03T04:48:14;67515.44;;;11.88;100.00
13422;BME280;6782;55.904;13.396;2022-09-03T04:51:03;67518.84;;;11.91;100.00
13422;BME280;6782;55.904;13.396;2022-09-03T04:53:53;67522.22;;;11.94;100.00
13422;BME280;6782;55.904;13.396;2022-09-03T04:56:41;67526.78;;;11.98;100.00
13422;BME280;6782;55.904;13.396;2022-09-03T04:59:28;67531.38;;;12.01;100.00
13422;BME280;6782;55.904;13.396;2022-09-03T05:02:15;67536.25;;;12.05;100.00
13422;BME280;6782;55.904;13.396;2022-09-03T05:05:04;67541.88;;;12.10;100.00
13422;BME280;6782;55.904;13.396;2022-09-03T05:07:51;67546.81;;;12.14;100.00
13422;BME280;6782;55.904;13.396;2022-09-03T05:10:38;67551.53;;;12.17;100.00
13422;BME280;6782;55.904;13.396;2022-09-03T05:13:25;67557.03;;;12.22;100.00
13422;BME280;6782;55.904;13.396;2022-09-03T05:16:13;67562.06;;;12.26;100.00
13422;BME280;6782;55.904;13.396;2022-09-03T05:19:00;67568.13;;;12.31;100.00
13422;BME280;6782;55.904;13.396;2022-09-03T05:21:49;67574.03;;;12.36;100.00
13422;BME280;6782;55.904;13.396;2022-09-03T05:24:36;67579.66;;;12.41;100.00
13422;BME280;6782;55.904;13.396;2022-09-03T05:27:23;67584.88;;;12.45;100.00
13422;BME280;6782;55.904;13.396;2022-09-03T05:30:11;67589.88;;;12.49;100.00
13422;BME280;6782;55.904;13.396;2022-09-03T05:32:58;67595.59;;;12.54;100.00
13422;BME280;6782;55.904;13.396;2022-09-03T05:35:45;67602.00;;;12.59;100.00
13422;BME280;6782;55.904;13.396;2022-09-03T05:38:34;67602.00;;;12.59;100.00
13422;BME280;6782;55.904;13.396;2022-09-03T05:41:21;67613.53;;;12.69;100.00
13422;BME280;6782;55.904;13.396;2022-09-03T05:44:09;67619.03;;;12.73;100.00
13422;BME280;6782;55.904;13.396;2022-09-03T05:46:56;67624.63;;;12.78;100.00
13422;BME280;6782;55.904;13.396;2022-09-03T05:49:43;67628.88;;;12.81;100.00
13422;BME280;6782;55.904;13.396;2022-09-03T05:52:30;67632.91;;;12.85;100.00
13422;BME280;6782;55.904;13.396;2022-09-03T05:55:18;67637.31;;;12.88;100.00
13422;BME280;6782;55.904;13.396;2022-09-03T05:58:06;67641.88;;;12.93;100.00
13422;BME280;6782;55.904;13.396;2022-09-03T06:00:53;67647.25;;;12.97;100.00
13422;BME280;6782;55.904;13.396;2022-09-03T06:03:40;67651.09;;;13.00;100.00
13422;BME280;6782;55.904;13.396;2022-09-03T06:06:30;67655.22;;;13.03;100.00
13422;BME280;6782;55.904;13.396;2022-09-03T06:09:19;67659.78;;;13.07;100.00
13422;BME280;6782;55.904;13.396;2022-09-03T06:12:08;67664.06;;;13.11;100.00
13422;BME280;6782;55.904;13.396;2022-09-03T06:14:55;67669.09;;;13.15;100.00
13422;BME280;6782;55.904;13.396;2022-09-03T06:17:42;67674.28;;;13.20;100.00
13422;BME280;6782;55.904;13.396;2022-09-03T06:20:29;67679.50;;;13.24;100.00
13422;BME280;6782;55.904;13.396;2022-09-03T06:23:17;67684.22;;;13.28;100.00
13422;BME280;6782;55.904;13.396;2022-09-03T06:26:06;67690.41;;;13.33;100.00
13422;BME280;6782;55.904;13.396;2022-09-03T06:28:56;67696.78;;;13.38;100.00
13422;BME280;6782;55.904;13.396;2022-09-03T06:31:44;67702.69;;;13.43;100.00
13422;BME280;6782;55.904;13.396;2022-09-03T06:34:33;67708.47;;;13.48;100.00
13422;BME280;6782;55.904;13.396;2022-09-03T06:37:20;67713.75;;;13.53;100.00
13422;BME280;6782;55.904;13.396;2022-09-03T06:40:09;67719.47;;;13.58;100.00
13422;BME280;6782;55.904;13.396;2022-09-03T06:42:57;67726.47;;;13.63;100.00
13422;BME280;6782;55.904;13.396;2022-09-03T06:45:57;67732.69;;;13.68;100.00
13422;BME280;6782;55.904;13.396;2022-09-03T06:48:45;67739.59;;;13.74;100.00
13422;BME280;6782;55.904;13.396;2022-09-03T06:51:33;67747.59;;;13.81;100.00
13422;BME280;6782;55.904;13.396;2022-09-03T06:54:20;67755.84;;;13.88;100.00
13422;BME280;6782;55.904;13.396;2022-09-03T06:57:09;67762.81;;;13.94;100.00
13422;BME280;6782;55.904;13.396;2022-09-03T06:59:57;67770.66;;;14.01;100.00
13422;BME280;6782;55.904;13.396;2022-09-03T07:02:46;67777.72;;;14.07;100.00
13422;BME280;6782;55.904;13.396;2022-09-03T07:05:33;67784.94;;;14.13;100.00
13422;BME280;6782;55.904;13.396;2022-09-03T07:08:20;67791.75;;;14.19;100.00
13422;BME280;6782;55.904;13.396;2022-09-03T07:11:10;67800.47;;;14.26;100.00
13422;BME280;6782;55.904;13.396;2022-09-03T07:13:58;67808.19;;;14.33;100.00
13422;BME280;6782;55.904;13.396;2022-09-03T07:16:46;67816.03;;;14.39;100.00
13422;BME280;6782;55.904;13.396;2022-09-03T07:19:35;67823.88;;;14.46;100.00
13422;BME280;6782;55.904;13.396;2022-09-03T07:22:22;67831.69;;;14.53;100.00
13422;BME280;6782;55.904;13.396;2022-09-03T07:25:10;67840.00;;;14.59;100.00
13422;BME280;6782;55.904;13.396;2022-09-03T07:27:57;67847.97;;;14.66;100.00
13422;BME280;6782;55.904;13.396;2022-09-03T07:30:45;67857.75;;;14.74;100.00
13422;BME280;6782;55.904;13.396;2022-09-03T07:33:33;67865.78;;;14.81;100.00
13422;BME280;6782;55.904;13.396;2022-09-03T07:36:23;67873.34;;;14.87;100.00
13422;BME280;6782;55.904;13.396;2022-09-03T07:39:12;67880.75;;;14.93;100.00
13422;BME280;6782;55.904;13.396;2022-09-03T07:42:00;67889.63;;;15.01;100.00
13422;BME280;6782;55.904;13.396;2022-09-03T07:44:47;67898.16;;;15.08;100.00
13422;BME280;6782;55.904;13.396;2022-09-03T07:47:34;67907.19;;;15.16;100.00
13422;BME280;6782;55.904;13.396;2022-09-03T07:50:21;67916.78;;;15.24;100.00
13422;BME280;6782;55.904;13.396;2022-09-03T07:53:10;67926.53;;;15.32;100.00
13422;BME280;6782;55.904;13.396;2022-09-03T07:56:01;67935.75;;;15.40;100.00
13422;BME280;6782;55.904;13.396;2022-09-03T07:58:48;67943.78;;;15.47;100.00
13422;BME280;6782;55.904;13.396;2022-09-03T08:01:36;67951.63;;;15.53;100.00
13422;BME280;6782;55.904;13.396;2022-09-03T08:04:23;67957.25;;;15.58;100.00
13422;BME280;6782;55.904;13.396;2022-09-03T08:07:10;67965.13;;;15.64;100.00
13422;BME280;6782;55.904;13.396;2022-09-03T08:09:59;67972.88;;;15.71;100.00
13422;BME280;6782;55.904;13.396;2022-09-03T08:12:46;67980.97;;;15.78;100.00
13422;BME280;6782;55.904;13.396;2022-09-03T08:15:33;67988.53;;;15.84;100.00
13422;BME280;6782;55.904;13.396;2022-09-03T08:18:22;67996.66;;;15.91;100.00
13422;BME280;6782;55.904;13.396;2022-09-03T08:21:12;68003.63;;;15.97;100.00
13422;BME280;6782;55.904;13.396;2022-09-03T08:24:00;68011.50;;;16.03;100.00
13422;BME280;6782;55.904;13.396;2022-09-03T08:26:50;68014.84;;;16.07;100.00
13422;BME280;6782;55.904;13.396;2022-09-03T08:29:38;68019.72;;;16.11;100.00
13422;BME280;6782;55.904;13.396;2022-09-03T08:32:26;68026.56;;;16.16;100.00
13422;BME280;6782;55.904;13.396;2022-09-03T08:35:13;68033.19;;;16.22;100.00
13422;BME280;6782;55.904;13.396;2022-09-03T08:38:00;68038.06;;;16.26;100.00
13422;BME280;6782;55.904;13.396;2022-09-03T08:40:50;68045.75;;;16.33;100.00
13422;BME280;6782;55.904;13.396;2022-09-03T08:44:06;68054.19;;;16.40;100.00
13422;BME280;6782;55.904;13.396;2022-09-03T08:46:59;68062.75;;;16.48;100.00
13422;BME280;6782;55.904;13.396;2022-09-03T08:49:50;68068.84;;;16.53;100.00
13422;BME280;6782;55.904;13.396;2022-09-03T08:52:44;68074.16;;;16.57;100.00
13422;BME280;6782;55.904;13.396;2022-09-03T08:55:35;68082.28;;;16.65;100.00
13422;BME280;6782;55.904;13.396;2022-09-03T08:58:30;68092.94;;;16.74;100.00
13422;BME280;6782;55.904;13.396;2022-09-03T09:01:35;68102.28;;;16.81;100.00
13422;BME280;6782;55.904;13.396;2022-09-03T09:04:34;68108.84;;;16.87;100.00
13422;BME280;6782;55.904;13.396;2022-09-03T09:07:29;68115.69;;;16.92;100.00
13422;BME280;6782;55.904;13.396;2022-09-03T09:10:23;68123.41;;;16.99;100.00
13422;BME280;6782;55.904;13.396;2022-09-03T09:13:21;68132.59;;;17.06;100.00
13422;BME280;6782;55.904;13.396;2022-09-03T09:16:15;68142.25;;;17.14;100.00
13422;BME280;6782;55.904;13.396;2022-09-03T09:19:17;68152.19;;;17.23;100.00
13422;BME280;6782;55.904;13.396;2022-09-03T09:22:13;68160.34;;;17.30;100.00
13422;BME280;6782;55.904;13.396;2022-09-03T09:25:07;68168.22;;;17.36;100.00
13422;BME280;6782;55.904;13.396;2022-09-03T09:28:06;68175.38;;;17.42;100.00
13422;BME280;6782;55.904;13.396;2022-09-03T09:30:57;68181.88;;;17.47;100.00
13422;BME280;6782;55.904;13.396;2022-09-03T09:33:46;68188.00;;;17.52;100.00
13422;BME280;6782;55.904;13.396;2022-09-03T09:36:41;68195.13;;;17.59;100.00
13422;BME280;6782;55.904;13.396;2022-09-03T09:39:29;68202.41;;;17.64;100.00
13422;BME280;6782;55.904;13.396;2022-09-03T09:42:20;68211.78;;;17.72;100.00
13422;BME280;6782;55.904;13.396;2022-09-03T09:45:08;68219.63;;;17.79;100.00
13422;BME280;6782;55.904;13.396;2022-09-03T09:47:56;68224.81;;;17.83;100.00
13422;BME280;6782;55.904;13.396;2022-09-03T09:50:44;68227.06;;;17.85;100.00
13422;BME280;6782;55.904;13.396;2022-09-03T09:53:33;68229.56;;;17.87;100.00
13422;BME280;6782;55.904;13.396;2022-09-03T09:56:21;68235.19;;;17.92;100.00
13422;BME280;6782;55.904;13.396;2022-09-03T09:59:11;68240.66;;;17.97;100.00
13422;BME280;6782;55.904;13.396;2022-09-03T10:02:18;68245.69;;;18.01;100.00
13422;BME280;6782;55.904;13.396;2022-09-03T10:05:13;68251.50;;;18.06;100.00
13422;BME280;6782;55.904;13.396;2022-09-03T10:08:03;68256.97;;;18.11;100.00
13422;BME280;6782;55.904;13.396;2022-09-03T10:10:52;68264.38;;;18.17;100.00
13422;BME280;6782;55.904;13.396;2022-09-03T10:13:42;68272.38;;;18.24;98.53
13422;BME280;6782;55.904;13.396;2022-09-03T10:16:34;68280.97;;;18.31;96.03
13422;BME280;6782;55.904;13.396;2022-09-03T10:19:29;68289.28;;;18.38;96.18
13422;BME280;6782;55.904;13.396;2022-09-03T10:22:22;68297.13;;;18.45;94.97
13422;BME280;6782;55.904;13.396;2022-09-03T10:25:12;68302.50;;;18.50;95.65
13422;BME280;6782;55.904;13.396;2022-09-03T10:28:03;68305.00;;;18.52;96.43
13422;BME280;6782;55.904;13.396;2022-09-03T10:31:11;68308.41;;;18.55;96.68
13422;BME280;6782;55.904;13.396;2022-09-03T10:34:05;68312.03;;;18.57;97.61
13422;BME280;6782;55.904;13.396;2022-09-03T10:36:59;68314.84;;;18.60;97.82
13422;BME280;6782;55.904;13.396;2022-09-03T10:39:58;68318.72;;;18.63;97.36
13422;BME280;6782;55.904;13.396;2022-09-03T10:43:06;68322.16;;;18.66;98.19
13422;BME280;6782;55.904;13.396;2022-09-03T10:46:01;68324.22;;;18.67;99.02
13422;BME280;6782;55.904;13.396;2022-09-03T10:49:11;68327.44;;;18.70;99.18
13422;BME280;6782;55.904;13.396;2022-09-03T10:52:08;68328.34;;;18.71;100.00
13422;BME280;6782;55.904;13.396;2022-09-03T10:55:09;68333.09;;;18.75;100.00
13422;BME280;6782;55.904;13.396;2022-09-03T10:58:15;68336.47;;;18.78;98.31
13422;BME280;6782;55.904;13.396;2022-09-03T11:01:17;68336.63;;;18.79;98.72
13422;BME280;6782;55.904;13.396;2022-09-03T11:03:48;68337.66;;;18.80;100.00
13422;BME280;6782;55.904;13.396;2022-09-03T11:06:22;68337.81;;;18.80;100.00
13422;BME280;6782;55.904;13.396;2022-09-03T11:08:55;68340.47;;;18.82;100.00
13422;BME280;6782;55.904;13.396;2022-09-03T11:11:30;68339.41;;;18.81;100.00
13422;BME280;6782;55.904;13.396;2022-09-03T11:14:06;68338.31;;;18.81;100.00
13422;BME280;6782;55.904;13.396;2022-09-03T11:16:38;68336.13;;;18.79;100.00
13422;BME280;6782;55.904;13.396;2022-09-03T11:19:11;68331.31;;;18.75;100.00
13422;BME280;6782;55.904;13.396;2022-09-03T11:21:42;68328.50;;;18.72;100.00
13422;BME280;6782;55.904;13.396;2022-09-03T11:24:12;68326.44;;;18.70;100.00
13422;BME280;6782;55.904;13.396;2022-09-03T11:26:42;68324.53;;;18.69;100.00
13422;BME280;6782;55.904;13.396;2022-09-03T11:29:17;68324.06;;;18.69;100.00
13422;BME280;6782;55.904;13.396;2022-09-03T11:31:54;68324.06;;;18.69;100.00
13422;BME280;6782;55.904;13.396;2022-09-03T11:34:31;68324.75;;;18.69;100.00
13422;BME280;6782;55.904;13.396;2022-09-03T11:37:15;68328.19;;;18.72;100.00
13422;BME280;6782;55.904;13.396;2022-09-03T11:39:44;68333.69;;;18.77;99.66
13422;BME280;6782;55.904;13.396;2022-09-03T11:42:28;68335.63;;;18.79;97.54
13422;BME280;6782;55.904;13.396;2022-09-03T11:45:19;68341.41;;;18.83;98.88
13422;BME280;6782;55.904;13.396;2022-09-03T11:47:47;68348.97;;;18.90;96.24
13422;BME280;6782;55.904;13.396;2022-09-03T11:50:18;68353.84;;;18.94;96.15
13422;BME280;6782;55.904;13.396;2022-09-03T11:52:46;68359.03;;;18.99;95.90
13422;BME280;6782;55.904;13.396;2022-09-03T11:55:28;68360.97;;;19.00;98.31
13422;BME280;6782;55.904;13.396;2022-09-03T11:57:56;68359.28;;;18.99;100.00
13422;BME280;6782;55.904;13.396;2022-09-03T12:00:25;68358.22;;;18.98;100.00
13422;BME280;6782;55.904;13.396;2022-09-03T12:02:56;68354.84;;;18.95;100.00
13422;BME280;6782;55.904;13.396;2022-09-03T12:05:30;68349.03;;;18.91;100.00
13422;BME280;6782;55.904;13.396;2022-09-03T12:08:12;68344.88;;;18.87;100.00
13422;BME280;6782;55.904;13.396;2022-09-03T12:10:50;68342.91;;;18.86;100.00
13422;BME280;6782;55.904;13.396;2022-09-03T12:13:34;68341.00;;;18.84;100.00
13422;BME280;6782;55.904;13.396;2022-09-03T12:16:19;68338.16;;;18.82;100.00
13422;BME280;6782;55.904;13.396;2022-09-03T12:18:53;68335.91;;;18.80;100.00
13422;BME280;6782;55.904;13.396;2022-09-03T12:21:22;68333.19;;;18.78;100.00
13422;BME280;6782;55.904;13.396;2022-09-03T12:23:50;68331.31;;;18.76;100.00
13422;BME280;6782;55.904;13.396;2022-09-03T12:26:20;68326.97;;;18.73;100.00
13422;BME280;6782;55.904;13.396;2022-09-03T12:28:50;68322.69;;;18.69;100.00
13422;BME280;6782;55.904;13.396;2022-09-03T12:31:22;68316.34;;;18.63;100.00
13422;BME280;6782;55.904;13.396;2022-09-03T12:33:51;68311.25;;;18.59;100.00
13422;BME280;6782;55.904;13.396;2022-09-03T12:36:20;68306.25;;;18.55;100.00
13422;BME280;6782;55.904;13.396;2022-09-03T12:38:48;68301.22;;;18.51;100.00
13422;BME280;6782;55.904;13.396;2022-09-03T12:41:20;68295.09;;;18.45;100.00
13422;BME280;6782;55.904;13.396;2022-09-03T12:43:51;68289.16;;;18.40;100.00
13422;BME280;6782;55.904;13.396;2022-09-03T12:46:23;68283.31;;;18.36;100.00
13422;BME280;6782;55.904;13.396;2022-09-03T12:48:55;68278.59;;;18.32;100.00
13422;BME280;6782;55.904;13.396;2022-09-03T13:51:39;68230.19;;;17.91;100.00
13422;BME280;6782;55.904;13.396;2022-09-03T13:54:14;68230.91;;;17.92;100.00
13422;BME280;6782;55.904;13.396;2022-09-03T13:56:52;68228.94;;;17.91;100.00
13422;BME280;6782;55.904;13.396;2022-09-03T13:59:28;68226.88;;;17.89;100.00
13422;BME280;6782;55.904;13.396;2022-09-03T14:02:06;68224.69;;;17.87;100.00
13422;BME280;6782;55.904;13.396;2022-09-03T14:05:00;68223.47;;;17.86;100.00
13422;BME280;6782;55.904;13.396;2022-09-03T14:07:42;68221.38;;;17.84;100.00
13422;BME280;6782;55.904;13.396;2022-09-03T14:10:20;68220.16;;;17.83;100.00
13422;BME280;6782;55.904;13.396;2022-09-03T14:12:52;68221.53;;;17.85;100.00
13422;BME280;6782;55.904;13.396;2022-09-03T14:15:29;68222.97;;;17.86;100.00
13422;BME280;6782;55.904;13.396;2022-09-03T14:18:02;68223.53;;;17.87;100.00
13422;BME280;6782;55.904;13.396;2022-09-03T14:20:41;68224.16;;;17.87;100.00
13422;BME280;6782;55.904;13.396;2022-09-03T14:23:26;68223.84;;;17.87;100.00
13422;BME280;6782;55.904;13.396;2022-09-03T14:25:56;68224.88;;;17.88;100.00
13422;BME280;6782;55.904;13.396;2022-09-03T14:28:30;68224.88;;;17.88;100.00
13422;BME280;6782;55.904;13.396;2022-09-03T14:31:03;68223.56;;;17.87;100.00
13422;BME280;6782;55.904;13.396;2022-09-03T14:33:38;68222.22;;;17.85;100.00
13422;BME280;6782;55.904;13.396;2022-09-03T14:36:18;68219.13;;;17.82;100.00
13422;BME280;6782;55.904;13.396;2022-09-03T14:39:06;68216.59;;;17.80;100.00
13422;BME280;6782;55.904;13.396;2022-09-03T14:41:56;68213.63;;;17.78;100.00
13422;BME280;6782;55.904;13.396;2022-09-03T14:44:36;68211.69;;;17.76;100.00
13422;BME280;6782;55.904;13.396;2022-09-03T14:47:20;68209.03;;;17.74;100.00
13422;BME280;6782;55.904;13.396;2022-09-03T14:50:01;68205.78;;;17.71;100.00
13422;BME280;6782;55.904;13.396;2022-09-03T14:52:58;68203.56;;;17.69;100.00
13422;BME280;6782;55.904;13.396;2022-09-03T14:55:56;68201.19;;;17.67;100.00
13422;BME280;6782;55.904;13.396;2022-09-03T14:58:52;68198.78;;;17.66;100.00
13422;BME280;6782;55.904;13.396;2022-09-03T15:01:28;68195.69;;;17.63;100.00
13422;BME280;6782;55.904;13.396;2022-09-03T15:04:42;68193.00;;;17.61;100.00
13422;BME280;6782;55.904;13.396;2022-09-03T15:07:22;68190.78;;;17.59;100.00
13422;BME280;6782;55.904;13.396;2022-09-03T15:09:58;68189.31;;;17.58;100.00
13422;BME280;6782;55.904;13.396;2022-09-03T15:12:34;68188.16;;;17.56;100.00
13422;BME280;6782;55.904;13.396;2022-09-03T15:15:09;68188.16;;;17.56;100.00
13422;BME280;6782;55.904;13.396;2022-09-03T15:17:52;68187.53;;;17.56;100.00
13422;BME280;6782;55.904;13.396;2022-09-03T15:20:29;68187.53;;;17.56;100.00
13422;BME280;6782;55.904;13.396;2022-09-03T15:26:29;68191.16;;;17.59;100.00
13422;BME280;6782;55.904;13.396;2022-09-03T15:29:22;68193.22;;;17.60;100.00
13422;BME280;6782;55.904;13.396;2022-09-03T15:31:58;68195.59;;;17.62;100.00
13422;BME280;6782;55.904;13.396;2022-09-03T15:34:45;68197.63;;;17.64;100.00
13422;BME280;6782;55.904;13.396;2022-09-03T15:37:22;68199.44;;;17.66;100.00
13422;BME280;6782;55.904;13.396;2022-09-03T15:39:59;68200.88;;;17.67;100.00
13422;BME280;6782;55.904;13.396;2022-09-03T15:42:30;68203.56;;;17.69;100.00